createdAt,value
2019-02-06T00:00:57.241Z,33.80
2019-02-06T00:01:57.246Z,32.90
2019-02-06T00:02:57.252Z,31.90
2019-02-06T00:03:57.261Z,33.70
2019-02-06T00:04:57.283Z,33.80
2019-02-06T00:05:57.282Z,34.70
2019-02-06T00:06:57.294Z,32.50
2019-02-06T00:07:57.300Z,32.20
2019-02-06T00:08:57.318Z,31.40
2019-02-06T00:09:57.341Z,30.80
2019-02-06T00:10:57.356Z,33.70
2019-02-06T00:11:57.341Z,33.50
2019-02-06T00:12:57.383Z,34.80
2019-02-06T00:13:57.360Z,33.90
2019-02-06T00:14:57.374Z,32.50
2019-02-06T00:15:57.388Z,30.50
2019-02-06T00:16:57.407Z,32.40
2019-02-06T00:17:57.397Z,30.70
2019-02-06T00:18:57.409Z,33.80
2019-02-06T00:19:57.416Z,31.50
2019-02-06T00:20:57.430Z,34.50
2019-02-06T00:21:57.438Z,33.40
2019-02-06T00:22:57.455Z,31.70
2019-02-06T00:23:57.454Z,32.40
2019-02-06T00:24:57.464Z,33.50
2019-02-06T00:25:57.477Z,33.70
2019-02-06T00:26:57.485Z,32.50
2019-02-06T00:27:57.497Z,34.30
2019-02-06T00:28:57.507Z,30.50
2019-02-06T00:29:57.523Z,31.30
2019-02-06T00:30:57.524Z,31.70
2019-02-06T00:31:57.605Z,33.70
2019-02-06T00:32:57.553Z,33.10
2019-02-06T00:33:57.553Z,32.60
2019-02-06T00:34:57.566Z,33.00
2019-02-06T00:35:57.571Z,33.50
2019-02-06T00:36:57.582Z,31.20
2019-02-06T00:37:57.598Z,31.20
2019-02-06T00:38:57.609Z,31.70
2019-02-06T00:39:57.610Z,29.40
2019-02-06T00:40:57.621Z,32.90
2019-02-06T00:41:57.628Z,30.80
2019-02-06T00:42:57.639Z,31.10
2019-02-06T00:43:57.655Z,33.30
2019-02-06T00:44:57.659Z,31.20
2019-02-06T00:45:57.670Z,33.70
2019-02-06T00:46:57.690Z,32.60
2019-02-06T00:47:57.689Z,29.80
2019-02-06T00:48:57.709Z,32.30
2019-02-06T00:49:57.708Z,33.30
2019-02-06T00:50:57.724Z,33.10
2019-02-06T00:51:57.728Z,32.60
2019-02-06T00:52:57.734Z,30.80
2019-02-06T00:53:57.744Z,28.60
2019-02-06T00:54:57.751Z,32.00
2019-02-06T00:55:57.767Z,31.20
2019-02-06T00:56:57.777Z,29.90
2019-02-06T00:57:57.781Z,32.10
2019-02-06T00:58:57.793Z,31.50
2019-02-06T00:59:58.598Z,32.20
2019-02-06T01:00:57.815Z,33.10
2019-02-06T01:01:57.820Z,33.20
2019-02-06T01:02:57.830Z,30.20
2019-02-06T01:03:57.840Z,30.80
2019-02-06T01:04:57.846Z,31.50
2019-02-06T01:05:57.858Z,32.30
2019-02-06T01:06:57.877Z,33.10
2019-02-06T01:07:57.875Z,30.60
2019-02-06T01:08:57.886Z,31.00
2019-02-06T01:09:57.905Z,30.60
2019-02-06T01:10:57.906Z,30.90
2019-02-06T01:11:57.915Z,30.70
2019-02-06T01:12:57.923Z,31.00
2019-02-06T01:13:57.941Z,31.40
2019-02-06T01:14:57.942Z,30.80
2019-02-06T01:15:57.953Z,31.30
2019-02-06T01:16:57.964Z,30.20
2019-02-06T01:17:57.971Z,30.20
2019-02-06T01:18:57.980Z,31.40
2019-02-06T01:19:57.989Z,29.20
2019-02-06T01:20:58.000Z,28.90
2019-02-06T01:21:58.010Z,29.70
2019-02-06T01:22:58.022Z,28.90
2019-02-06T01:23:58.030Z,29.30
2019-02-06T01:24:58.048Z,30.60
2019-02-06T01:25:58.051Z,29.70
2019-02-06T01:26:58.062Z,27.40
2019-02-06T01:27:58.071Z,31.40
2019-02-06T01:28:58.073Z,28.10
2019-02-06T01:29:58.085Z,29.60
2019-02-06T01:30:58.099Z,30.20
2019-02-06T01:31:58.107Z,30.40
2019-02-06T01:32:58.115Z,29.40
2019-02-06T01:33:58.122Z,30.80
2019-02-06T01:34:58.145Z,30.10
2019-02-06T01:35:58.152Z,29.90
2019-02-06T01:36:58.165Z,27.80
2019-02-06T01:37:58.203Z,28.80
2019-02-06T01:38:58.175Z,28.60
2019-02-06T01:39:58.185Z,30.00
2019-02-06T01:40:58.191Z,28.60
2019-02-06T01:41:58.198Z,29.10
2019-02-06T01:42:58.217Z,30.70
2019-02-06T01:43:58.227Z,30.10
2019-02-06T01:44:58.226Z,29.30
2019-02-06T01:45:58.241Z,29.70
2019-02-06T01:46:58.248Z,29.60
2019-02-06T01:47:58.268Z,29.00
2019-02-06T01:48:58.265Z,28.40
2019-02-06T01:49:58.272Z,29.90
2019-02-06T01:50:58.282Z,29.70
2019-02-06T01:51:58.297Z,27.90
2019-02-06T01:52:58.302Z,29.90
2019-02-06T01:53:58.312Z,29.50
2019-02-06T01:54:58.320Z,30.00
2019-02-06T01:55:58.329Z,27.10
2019-02-06T01:56:58.338Z,29.40
2019-02-06T01:57:58.350Z,30.50
2019-02-06T01:58:58.362Z,30.30
2019-02-06T01:59:58.368Z,28.10
2019-02-06T02:00:58.401Z,29.90
2019-02-06T02:01:58.389Z,26.20
2019-02-06T02:02:58.406Z,28.90
2019-02-06T02:03:58.406Z,28.50
2019-02-06T02:04:58.418Z,29.00
2019-02-06T02:06:02.389Z,29.00
2019-02-06T02:06:58.484Z,28.40
2019-02-06T02:07:58.473Z,26.40
2019-02-06T02:08:58.462Z,29.40
2019-02-06T02:09:58.470Z,26.10
2019-02-06T02:10:58.472Z,27.00
2019-02-06T02:11:58.480Z,29.80
2019-02-06T02:12:58.495Z,26.20
2019-02-06T02:13:58.498Z,25.60
2019-02-06T02:14:58.513Z,26.30
2019-02-06T02:15:58.516Z,27.60
2019-02-06T02:16:58.532Z,28.00
2019-02-06T02:17:58.538Z,25.70
2019-02-06T02:18:58.544Z,28.30
2019-02-06T02:19:58.557Z,26.30
2019-02-06T02:20:58.568Z,25.20
2019-02-06T02:21:58.575Z,25.60
2019-02-06T02:22:58.590Z,25.50
2019-02-06T02:23:58.601Z,25.30
2019-02-06T02:24:58.603Z,25.80
2019-02-06T02:25:58.611Z,26.30
2019-02-06T02:26:58.632Z,25.90
2019-02-06T02:27:58.637Z,25.70
2019-02-06T02:28:58.646Z,24.30
2019-02-06T02:29:58.654Z,24.80
2019-02-06T02:30:58.658Z,22.40
2019-02-06T02:31:58.669Z,24.90
2019-02-06T02:32:58.676Z,23.30
2019-02-06T02:33:58.688Z,22.80
2019-02-06T02:34:58.694Z,24.30
2019-02-06T02:35:58.713Z,23.70
2019-02-06T02:36:58.713Z,23.20
2019-02-06T02:37:58.734Z,21.30
2019-02-06T02:38:58.735Z,24.60
2019-02-06T02:39:58.744Z,23.90
2019-02-06T02:40:58.790Z,23.00
2019-02-06T02:41:58.770Z,24.00
2019-02-06T02:42:58.772Z,20.30
2019-02-06T02:43:58.778Z,23.80
2019-02-06T02:44:58.792Z,22.30
2019-02-06T02:45:59.031Z,20.70
2019-02-06T02:46:58.810Z,24.30
2019-02-06T02:47:58.822Z,22.40
2019-02-06T02:48:58.826Z,21.70
2019-02-06T02:49:58.837Z,24.20
2019-02-06T02:50:58.849Z,21.90
2019-02-06T02:51:58.854Z,23.90
2019-02-06T02:52:58.906Z,22.10
2019-02-06T02:53:58.884Z,23.30
2019-02-06T02:54:58.886Z,21.10
2019-02-06T02:55:58.895Z,20.30
2019-02-06T02:56:58.902Z,21.40
2019-02-06T02:57:58.910Z,21.40
2019-02-06T02:58:58.923Z,21.30
2019-02-06T02:59:58.929Z,22.20
2019-02-06T03:00:58.939Z,20.00
2019-02-06T03:01:58.964Z,20.50
2019-02-06T03:02:58.958Z,20.50
2019-02-06T03:03:59.041Z,19.80
2019-02-06T03:04:58.978Z,21.30
2019-02-06T03:05:58.988Z,20.70
2019-02-06T03:06:58.999Z,20.80
2019-02-06T03:07:59.014Z,21.20
2019-02-06T03:08:59.017Z,21.00
2019-02-06T03:09:59.038Z,19.60
2019-02-06T03:10:59.052Z,19.50
2019-02-06T03:11:59.052Z,19.60
2019-02-06T03:12:59.145Z,22.00
2019-02-06T03:13:59.064Z,20.10
2019-02-06T03:14:59.069Z,22.10
2019-02-06T03:15:59.079Z,20.40
2019-02-06T03:16:59.091Z,18.80
2019-02-06T03:17:59.118Z,18.90
2019-02-06T03:18:59.116Z,20.20
2019-02-06T03:19:59.131Z,19.70
2019-02-06T03:20:59.133Z,19.90
2019-02-06T03:21:59.140Z,19.60
2019-02-06T03:22:59.150Z,19.10
2019-02-06T03:23:59.166Z,20.60
2019-02-06T03:24:59.166Z,20.00
2019-02-06T03:25:59.176Z,19.80
2019-02-06T03:26:59.189Z,20.20
2019-02-06T03:27:59.282Z,20.10
2019-02-06T03:28:59.224Z,19.70
2019-02-06T03:29:59.214Z,19.80
2019-02-06T03:30:59.227Z,19.60
2019-02-06T03:31:59.237Z,19.10
2019-02-06T03:32:59.244Z,19.80
2019-02-06T03:33:59.264Z,17.60
2019-02-06T03:34:59.280Z,19.20
2019-02-06T03:35:59.272Z,18.00
2019-02-06T03:36:59.281Z,17.90
2019-02-06T03:37:59.293Z,18.00
2019-02-06T03:38:59.301Z,18.70
2019-02-06T03:39:59.311Z,17.80
2019-02-06T03:40:59.317Z,17.80
2019-02-06T03:41:59.323Z,19.10
2019-02-06T03:42:59.334Z,18.40
2019-02-06T03:43:59.348Z,18.50
2019-02-06T03:44:59.383Z,18.50
2019-02-06T03:45:59.375Z,18.80
2019-02-06T03:46:59.380Z,16.50
2019-02-06T03:47:59.384Z,18.40
2019-02-06T03:48:59.391Z,16.30
2019-02-06T03:49:59.400Z,17.30
2019-02-06T03:50:59.422Z,19.30
2019-02-06T03:51:59.426Z,20.70
2019-02-06T03:52:59.429Z,16.10
2019-02-06T03:53:59.448Z,17.70
2019-02-06T03:54:59.452Z,17.40
2019-02-06T03:55:59.461Z,20.10
2019-02-06T03:56:59.472Z,17.90
2019-02-06T03:57:59.479Z,18.50
2019-02-06T03:58:59.487Z,16.10
2019-02-06T03:59:59.490Z,15.90
2019-02-06T04:00:59.510Z,16.20
2019-02-06T04:01:59.518Z,17.60
2019-02-06T04:02:59.530Z,18.20
2019-02-06T04:03:59.532Z,16.80
2019-02-06T04:04:59.542Z,16.20
2019-02-06T04:05:59.550Z,14.70
2019-02-06T04:07:00.959Z,16.60
2019-02-06T04:07:59.593Z,16.90
2019-02-06T04:08:59.576Z,16.60
2019-02-06T04:09:59.588Z,17.70
2019-02-06T04:10:59.602Z,16.90
2019-02-06T04:11:59.605Z,18.30
2019-02-06T04:12:59.614Z,15.20
2019-02-06T04:13:59.629Z,16.30
2019-02-06T04:14:59.638Z,20.00
2019-02-06T04:15:59.699Z,16.60
2019-02-06T04:16:59.720Z,15.50
2019-02-06T04:17:59.697Z,15.60
2019-02-06T04:18:59.670Z,15.50
2019-02-06T04:19:59.681Z,15.30
2019-02-06T04:20:59.696Z,14.40
2019-02-06T04:21:59.698Z,15.30
2019-02-06T04:22:59.709Z,16.20
2019-02-06T04:23:59.720Z,14.80
2019-02-06T04:24:59.736Z,14.20
2019-02-06T04:25:59.735Z,14.50
2019-02-06T04:26:59.748Z,15.90
2019-02-06T04:27:59.754Z,15.30
2019-02-06T04:28:59.767Z,14.10
2019-02-06T04:29:59.781Z,15.40
2019-02-06T04:30:59.793Z,15.80
2019-02-06T04:31:59.797Z,15.50
2019-02-06T04:32:59.803Z,15.50
2019-02-06T04:33:59.809Z,12.70
2019-02-06T04:34:59.829Z,14.40
2019-02-06T04:35:59.833Z,13.40
2019-02-06T04:37:06.608Z,14.40
2019-02-06T04:37:59.883Z,13.80
2019-02-06T04:38:59.870Z,13.30
2019-02-06T04:39:59.865Z,12.40
2019-02-06T04:40:59.878Z,12.50
2019-02-06T04:41:59.888Z,12.40
2019-02-06T04:42:59.904Z,12.40
2019-02-06T04:43:59.907Z,12.90
2019-02-06T04:44:59.911Z,13.60
2019-02-06T04:45:59.922Z,12.30
2019-02-06T04:46:59.934Z,12.00
2019-02-06T04:47:59.949Z,13.20
2019-02-06T04:48:59.956Z,13.20
2019-02-06T04:50:00.007Z,14.80
2019-02-06T04:50:59.969Z,11.50
2019-02-06T04:51:59.981Z,11.90
2019-02-06T04:52:59.989Z,11.80
2019-02-06T04:53:59.998Z,12.10
2019-02-06T04:55:00.006Z,11.10
2019-02-06T04:56:00.018Z,12.70
2019-02-06T04:57:00.031Z,11.40
2019-02-06T04:58:00.038Z,12.50
2019-02-06T04:59:00.062Z,11.90
2019-02-06T05:00:00.329Z,12.20
2019-02-06T05:01:00.072Z,11.30
2019-02-06T05:02:00.080Z,12.30
2019-02-06T05:03:00.085Z,11.20
2019-02-06T05:04:00.092Z,11.60
2019-02-06T05:05:00.210Z,13.20
2019-02-06T05:06:00.117Z,11.90
2019-02-06T05:07:00.128Z,13.30
2019-02-06T05:08:00.132Z,11.20
2019-02-06T05:09:00.197Z,11.70
2019-02-06T05:10:00.311Z,11.90
2019-02-06T05:11:00.158Z,11.60
2019-02-06T05:12:00.173Z,12.60
2019-02-06T05:13:00.176Z,13.50
2019-02-06T05:14:00.209Z,11.80
2019-02-06T05:15:00.332Z,11.00
2019-02-06T05:16:00.205Z,12.30
2019-02-06T05:17:00.215Z,12.30
2019-02-06T05:18:00.229Z,11.10
2019-02-06T05:19:00.243Z,10.50
2019-02-06T05:20:00.333Z,11.70
2019-02-06T05:21:00.263Z,11.70
2019-02-06T05:22:00.263Z,11.90
2019-02-06T05:23:00.273Z,12.30
2019-02-06T05:24:00.281Z,12.60
2019-02-06T05:25:00.748Z,12.70
2019-02-06T05:26:00.297Z,12.40
2019-02-06T05:27:00.315Z,13.50
2019-02-06T05:28:00.319Z,11.80
2019-02-06T05:29:00.334Z,12.20
2019-02-06T05:30:00.404Z,12.90
2019-02-06T05:31:01.070Z,11.90
2019-02-06T05:32:00.363Z,11.40
2019-02-06T05:33:00.371Z,10.40
2019-02-06T05:34:00.375Z,11.30
2019-02-06T05:35:00.402Z,11.20
2019-02-06T05:36:00.402Z,12.30
2019-02-06T05:37:00.412Z,12.60
2019-02-06T05:38:00.411Z,11.00
2019-02-06T05:39:00.424Z,9.80
2019-02-06T05:40:00.434Z,11.50
2019-02-06T05:41:00.444Z,12.60
2019-02-06T05:42:00.464Z,11.90
2019-02-06T05:43:00.537Z,10.60
2019-02-06T05:44:00.569Z,11.10
2019-02-06T05:45:00.484Z,11.20
2019-02-06T05:46:00.485Z,11.80
2019-02-06T05:47:00.502Z,12.40
2019-02-06T05:48:00.532Z,10.70
2019-02-06T05:49:00.518Z,11.70
2019-02-06T05:50:00.529Z,11.40
2019-02-06T05:51:00.535Z,11.10
2019-02-06T05:52:00.541Z,10.90
2019-02-06T05:53:00.556Z,10.20
2019-02-06T05:54:00.569Z,10.70
2019-02-06T05:55:04.249Z,10.70
2019-02-06T05:56:00.603Z,10.60
2019-02-06T05:57:00.595Z,10.60
2019-02-06T05:58:00.601Z,9.90
2019-02-06T05:59:00.736Z,12.20
2019-02-06T06:00:00.623Z,12.00
2019-02-06T06:01:00.644Z,11.20
2019-02-06T06:02:00.641Z,11.20
2019-02-06T06:03:00.656Z,11.20
2019-02-06T06:04:01.081Z,11.80
2019-02-06T06:05:00.811Z,12.20
2019-02-06T06:06:00.718Z,10.90
2019-02-06T06:07:00.688Z,11.60
2019-02-06T06:08:00.743Z,12.30
2019-02-06T06:09:01.822Z,12.10
2019-02-06T06:10:00.720Z,11.30
2019-02-06T06:11:00.762Z,12.10
2019-02-06T06:12:00.738Z,10.70
2019-02-06T06:13:00.747Z,10.90
2019-02-06T06:14:00.752Z,11.00
2019-02-06T06:15:00.785Z,13.10
2019-02-06T06:16:00.774Z,10.70
2019-02-06T06:17:00.788Z,13.10
2019-02-06T06:18:00.802Z,11.60
2019-02-06T06:19:00.821Z,12.20
2019-02-06T06:20:01.346Z,10.30
2019-02-06T06:21:00.952Z,11.70
2019-02-06T06:22:00.827Z,10.20
2019-02-06T06:23:01.347Z,12.80
2019-02-06T06:24:00.913Z,12.40
2019-02-06T06:25:00.998Z,12.20
2019-02-06T06:26:00.913Z,11.70
2019-02-06T06:27:00.879Z,11.50
2019-02-06T06:28:00.885Z,12.70
2019-02-06T06:29:00.921Z,13.10
2019-02-06T06:30:00.937Z,13.40
2019-02-06T06:31:00.932Z,13.10
2019-02-06T06:32:00.935Z,11.50
2019-02-06T06:33:01.040Z,15.30
2019-02-06T06:34:00.989Z,12.50
2019-02-06T06:35:00.998Z,12.40
2019-02-06T06:36:00.971Z,12.00
2019-02-06T06:37:00.971Z,13.00
2019-02-06T06:38:02.810Z,11.90
2019-02-06T06:39:00.998Z,12.00
2019-02-06T06:40:01.031Z,13.20
2019-02-06T06:41:01.198Z,12.80
2019-02-06T06:42:01.127Z,12.60
2019-02-06T06:43:01.093Z,12.70
2019-02-06T06:44:01.049Z,12.10
2019-02-06T06:45:01.075Z,11.20
2019-02-06T06:46:01.192Z,11.90
2019-02-06T06:47:01.278Z,11.30
2019-02-06T06:49:01.116Z,13.50
2019-02-06T06:50:01.113Z,14.50
2019-02-06T06:51:01.114Z,11.40
2019-02-06T06:52:03.934Z,12.30
2019-02-06T06:53:01.127Z,12.90
2019-02-06T06:54:01.147Z,11.30
2019-02-06T06:55:01.143Z,12.10
2019-02-06T06:56:01.157Z,11.60
2019-02-06T06:57:01.166Z,11.10
2019-02-06T06:58:01.188Z,11.90
2019-02-06T06:59:01.191Z,13.00
2019-02-06T07:00:01.202Z,13.70
2019-02-06T07:01:01.223Z,11.90
2019-02-06T07:02:01.225Z,14.20
2019-02-06T07:03:01.232Z,11.60
2019-02-06T07:04:01.227Z,11.50
2019-02-06T07:05:01.253Z,13.40
2019-02-06T07:06:01.251Z,11.50
2019-02-06T07:07:01.408Z,12.80
2019-02-06T07:08:09.147Z,13.60
2019-02-06T07:09:01.391Z,12.30
2019-02-06T07:10:01.276Z,11.60
2019-02-06T07:11:01.290Z,13.60
2019-02-06T07:12:01.389Z,12.90
2019-02-06T07:13:01.498Z,11.60
2019-02-06T07:14:01.319Z,12.30
2019-02-06T07:15:01.345Z,14.00
2019-02-06T07:16:01.595Z,14.40
2019-02-06T07:17:01.344Z,11.70
2019-02-06T07:18:01.353Z,14.70
2019-02-06T07:19:01.362Z,15.00
2019-02-06T07:20:01.384Z,13.10
2019-02-06T07:21:01.777Z,13.90
2019-02-06T07:22:01.498Z,15.10
2019-02-06T07:23:01.400Z,13.70
2019-02-06T07:24:01.410Z,12.90
2019-02-06T07:25:01.423Z,12.60
2019-02-06T07:26:01.428Z,13.20
2019-02-06T07:27:01.446Z,12.60
2019-02-06T07:28:01.452Z,11.50
2019-02-06T07:29:01.464Z,11.70
2019-02-06T07:30:01.487Z,13.70
2019-02-06T07:31:01.516Z,15.50
2019-02-06T07:32:01.486Z,12.10
2019-02-06T07:33:02.445Z,10.90
2019-02-06T07:34:01.512Z,15.00
2019-02-06T07:35:01.523Z,12.50
2019-02-06T07:36:01.647Z,14.70
2019-02-06T07:37:01.562Z,12.60
2019-02-06T07:38:01.560Z,11.70
2019-02-06T07:39:01.581Z,11.60
2019-02-06T07:40:01.616Z,11.30
2019-02-06T07:41:01.660Z,11.00
2019-02-06T07:42:02.304Z,12.90
2019-02-06T07:43:01.632Z,12.70
2019-02-06T07:44:01.610Z,14.30
2019-02-06T07:45:01.611Z,12.60
2019-02-06T07:46:01.620Z,11.30
2019-02-06T07:47:01.633Z,13.20
2019-02-06T07:48:01.641Z,13.20
2019-02-06T07:49:01.652Z,11.70
2019-02-06T07:50:01.660Z,13.50
2019-02-06T07:51:01.673Z,14.70
2019-02-06T07:52:01.678Z,13.20
2019-02-06T07:53:01.881Z,11.90
2019-02-06T07:54:01.699Z,11.10
2019-02-06T07:55:01.718Z,13.00
2019-02-06T07:56:01.722Z,14.30
2019-02-06T07:57:01.737Z,12.30
2019-02-06T07:58:02.064Z,12.60
2019-02-06T07:59:01.752Z,14.40
2019-02-06T08:00:01.768Z,18.00
2019-02-06T08:01:01.765Z,12.20
2019-02-06T08:02:01.903Z,12.30
2019-02-06T08:03:01.790Z,11.60
2019-02-06T08:04:01.797Z,13.40
2019-02-06T08:05:01.803Z,13.30
2019-02-06T08:06:01.816Z,12.90
2019-02-06T08:07:01.829Z,13.40
2019-02-06T08:08:01.831Z,12.60
2019-02-06T08:09:01.878Z,11.90
2019-02-06T08:10:01.854Z,13.70
2019-02-06T08:11:03.070Z,14.00
2019-02-06T08:12:01.895Z,11.30
2019-02-06T08:13:01.884Z,12.60
2019-02-06T08:14:01.893Z,11.10
2019-02-06T08:15:01.911Z,14.90
2019-02-06T08:16:01.928Z,11.20
2019-02-06T08:17:01.925Z,13.60
2019-02-06T08:18:01.942Z,12.30
2019-02-06T08:19:01.946Z,14.60
2019-02-06T08:20:01.955Z,14.10
2019-02-06T08:21:01.960Z,12.80
2019-02-06T08:22:02.000Z,12.70
2019-02-06T08:23:01.989Z,15.90
2019-02-06T08:24:01.994Z,12.30
2019-02-06T08:25:02.007Z,11.20
2019-02-06T08:26:02.034Z,12.10
2019-02-06T08:27:02.446Z,12.20
2019-02-06T08:28:02.035Z,13.80
2019-02-06T08:29:02.045Z,11.20
2019-02-06T08:30:02.060Z,12.20
2019-02-06T08:32:02.543Z,11.20
2019-02-06T08:34:02.668Z,12.70
2019-02-06T08:35:02.115Z,14.60
2019-02-06T08:36:02.121Z,12.60
2019-02-06T08:37:02.131Z,14.40
2019-02-06T08:38:02.135Z,13.60
2019-02-06T08:39:02.167Z,14.30
2019-02-06T08:40:02.151Z,14.20
2019-02-06T08:41:02.268Z,13.10
2019-02-06T08:42:02.176Z,13.10
2019-02-06T08:43:02.247Z,11.90
2019-02-06T08:44:02.207Z,13.30
2019-02-06T08:45:02.205Z,12.70
2019-02-06T08:46:02.230Z,11.60
2019-02-06T08:47:02.226Z,11.90
2019-02-06T08:48:02.239Z,9.80
2019-02-06T08:49:02.305Z,9.20
2019-02-06T08:50:02.269Z,12.00
2019-02-06T08:51:02.267Z,9.30
2019-02-06T08:52:02.313Z,9.90
2019-02-06T08:53:02.287Z,12.90
2019-02-06T08:54:02.302Z,12.20
2019-02-06T08:55:02.306Z,12.30
2019-02-06T08:56:02.569Z,10.10
2019-02-06T08:57:02.344Z,11.60
2019-02-06T08:58:02.367Z,10.00
2019-02-06T08:59:02.352Z,11.70
2019-02-06T09:00:02.358Z,11.10
2019-02-06T09:02:02.390Z,12.00
2019-02-06T09:03:02.390Z,12.50
2019-02-06T09:04:02.415Z,11.70
2019-02-06T09:05:02.410Z,12.30
2019-02-06T09:06:02.435Z,10.90
2019-02-06T09:07:02.446Z,12.70
2019-02-06T09:08:02.460Z,11.50
2019-02-06T09:09:02.469Z,11.40
2019-02-06T09:10:02.479Z,12.60
2019-02-06T09:11:02.470Z,11.60
2019-02-06T09:12:02.482Z,11.00
2019-02-06T09:13:02.517Z,11.10
2019-02-06T09:14:02.506Z,13.40
2019-02-06T09:15:03.923Z,13.00
2019-02-06T09:16:02.522Z,11.60
2019-02-06T09:17:02.572Z,12.40
2019-02-06T09:18:02.568Z,11.50
2019-02-06T09:19:02.582Z,11.50
2019-02-06T09:20:02.643Z,12.50
2019-02-06T09:21:02.673Z,13.00
2019-02-06T09:22:02.761Z,12.00
2019-02-06T09:23:02.646Z,11.00
2019-02-06T09:24:02.625Z,11.30
2019-02-06T09:25:02.629Z,9.90
2019-02-06T09:26:02.631Z,10.30
2019-02-06T09:27:02.639Z,12.40
2019-02-06T09:28:02.659Z,10.00
2019-02-06T09:29:02.669Z,11.60
2019-02-06T09:30:02.678Z,10.10
2019-02-06T09:31:02.684Z,10.20
2019-02-06T09:32:02.696Z,10.40
2019-02-06T09:33:02.740Z,11.80
2019-02-06T09:34:02.720Z,10.00
2019-02-06T09:35:02.729Z,13.40
2019-02-06T09:36:02.745Z,11.50
2019-02-06T09:37:05.065Z,11.40
2019-02-06T09:38:02.809Z,11.10
2019-02-06T09:39:11.313Z,10.70
2019-02-06T09:40:02.793Z,12.50
2019-02-06T09:41:02.787Z,11.30
2019-02-06T09:42:03.726Z,12.20
2019-02-06T09:43:02.818Z,12.90
2019-02-06T09:44:02.933Z,10.30
2019-02-06T09:45:02.847Z,10.30
2019-02-06T09:46:02.990Z,10.90
2019-02-06T09:47:02.854Z,13.90
2019-02-06T09:48:02.867Z,12.30
2019-02-06T09:49:02.882Z,14.60
2019-02-06T09:50:02.889Z,12.20
2019-02-06T09:51:02.904Z,11.30
2019-02-06T09:52:02.956Z,11.20
2019-02-06T09:53:03.302Z,12.00
2019-02-06T09:54:02.935Z,11.10
2019-02-06T09:55:02.942Z,11.70
2019-02-06T09:56:02.953Z,11.50
2019-02-06T09:57:02.996Z,12.50
2019-02-06T09:58:02.976Z,11.90
2019-02-06T09:59:02.994Z,12.90
2019-02-06T10:00:02.998Z,12.90
2019-02-06T10:01:03.009Z,12.80
2019-02-06T10:02:03.027Z,12.60
2019-02-06T10:03:03.064Z,12.90
2019-02-06T10:04:03.046Z,12.20
2019-02-06T10:05:03.056Z,12.20
2019-02-06T10:06:03.064Z,13.00
2019-02-06T10:07:03.078Z,13.40
2019-02-06T10:08:03.110Z,12.30
2019-02-06T10:09:03.103Z,10.80
2019-02-06T10:10:03.110Z,13.40
2019-02-06T10:11:03.128Z,14.50
2019-02-06T10:12:03.141Z,12.90
2019-02-06T10:13:03.143Z,11.80
2019-02-06T10:14:03.154Z,12.90
2019-02-06T10:15:03.183Z,10.50
2019-02-06T10:16:03.482Z,12.50
2019-02-06T10:17:03.192Z,10.20
2019-02-06T10:18:03.200Z,14.00
2019-02-06T10:19:03.263Z,12.50
2019-02-06T10:20:03.224Z,13.20
2019-02-06T10:21:03.240Z,12.10
2019-02-06T10:22:03.243Z,11.10
2019-02-06T10:23:03.413Z,13.70
2019-02-06T10:24:03.266Z,13.10
2019-02-06T10:25:03.636Z,11.10
2019-02-06T10:26:03.290Z,12.90
2019-02-06T10:27:03.413Z,13.30
2019-02-06T10:28:03.318Z,14.20
2019-02-06T10:29:03.322Z,13.20
2019-02-06T10:30:04.016Z,13.70
2019-02-06T10:31:03.358Z,12.80
2019-02-06T10:32:03.357Z,12.90
2019-02-06T10:33:03.393Z,12.70
2019-02-06T10:34:03.378Z,12.10
2019-02-06T10:35:03.396Z,10.20
2019-02-06T10:36:04.062Z,14.80
2019-02-06T10:37:03.409Z,12.90
2019-02-06T10:38:03.430Z,12.80
2019-02-06T10:39:03.491Z,12.60
2019-02-06T10:40:04.598Z,10.90
2019-02-06T10:41:04.696Z,11.10
2019-02-06T10:42:04.209Z,10.20
2019-02-06T10:43:03.480Z,11.30
2019-02-06T10:44:03.489Z,12.00
2019-02-06T10:45:03.501Z,11.10
2019-02-06T10:46:03.518Z,10.20
2019-02-06T10:47:03.523Z,13.60
2019-02-06T10:48:03.534Z,11.10
2019-02-06T10:49:03.557Z,11.10
2019-02-06T10:50:03.554Z,12.40
2019-02-06T10:51:04.343Z,9.80
2019-02-06T10:52:03.581Z,12.30
2019-02-06T10:53:03.589Z,10.90
2019-02-06T10:54:03.608Z,12.10
2019-02-06T10:55:03.817Z,11.70
2019-02-06T10:56:03.633Z,11.40
2019-02-06T10:57:03.646Z,10.50
2019-02-06T10:58:03.853Z,13.00
2019-02-06T10:59:03.659Z,12.60
2019-02-06T11:00:03.799Z,13.20
2019-02-06T11:01:03.682Z,13.60
2019-02-06T11:02:03.709Z,10.40
2019-02-06T11:03:03.711Z,11.20
2019-02-06T11:04:03.727Z,11.70
2019-02-06T11:05:03.737Z,10.30
2019-02-06T11:06:03.739Z,11.10
2019-02-06T11:07:03.758Z,11.40
2019-02-06T11:08:03.765Z,12.10
2019-02-06T11:09:03.880Z,12.00
2019-02-06T11:10:03.800Z,11.30
2019-02-06T11:11:03.814Z,11.20
2019-02-06T11:12:03.803Z,13.90
2019-02-06T11:13:03.850Z,11.50
2019-02-06T11:14:03.834Z,10.80
2019-02-06T11:15:03.853Z,10.40
2019-02-06T11:16:03.850Z,9.90
2019-02-06T11:17:03.864Z,10.80
2019-02-06T11:18:03.876Z,12.90
2019-02-06T11:19:03.905Z,14.00
2019-02-06T11:20:04.098Z,11.80
2019-02-06T11:21:03.912Z,10.70
2019-02-06T11:22:03.940Z,12.40
2019-02-06T11:23:03.929Z,10.90
2019-02-06T11:24:03.938Z,13.30
2019-02-06T11:25:04.680Z,11.80
2019-02-06T11:26:03.969Z,10.60
2019-02-06T11:27:03.977Z,14.40
2019-02-06T11:28:03.996Z,11.90
2019-02-06T11:29:04.015Z,9.60
2019-02-06T11:30:04.013Z,10.80
2019-02-06T11:31:04.027Z,13.60
2019-02-06T11:32:04.036Z,11.30
2019-02-06T11:33:04.044Z,10.20
2019-02-06T11:34:04.117Z,10.80
2019-02-06T11:35:04.068Z,9.80
2019-02-06T11:36:04.096Z,11.10
2019-02-06T11:37:04.094Z,11.80
2019-02-06T11:38:04.108Z,12.70
2019-02-06T11:39:04.120Z,14.30
2019-02-06T11:40:04.143Z,12.00
2019-02-06T11:41:04.160Z,10.30
2019-02-06T11:42:04.149Z,11.30
2019-02-06T11:43:04.165Z,12.70
2019-02-06T11:44:04.172Z,9.30
2019-02-06T11:45:04.323Z,10.80
2019-02-06T11:46:04.226Z,11.30
2019-02-06T11:47:04.265Z,11.70
2019-02-06T11:48:04.225Z,10.80
2019-02-06T11:49:04.237Z,9.90
2019-02-06T11:50:04.248Z,16.20
2019-02-06T11:51:04.276Z,11.50
2019-02-06T11:52:04.275Z,11.60
2019-02-06T11:53:05.955Z,11.10
2019-02-06T11:54:04.290Z,10.70
2019-02-06T11:55:04.318Z,10.70
2019-02-06T11:56:04.419Z,10.10
2019-02-06T11:57:04.326Z,16.00
2019-02-06T11:58:04.352Z,11.40
2019-02-06T11:59:04.374Z,9.60
2019-02-06T12:00:04.372Z,9.80
2019-02-06T12:01:04.376Z,15.30
2019-02-06T12:02:04.400Z,11.40
2019-02-06T12:03:04.395Z,12.30
2019-02-06T12:04:04.414Z,12.70
2019-02-06T12:05:04.597Z,10.10
2019-02-06T12:06:04.437Z,14.50
2019-02-06T12:07:04.446Z,11.50
2019-02-06T12:08:04.471Z,10.90
2019-02-06T12:09:04.783Z,11.00
2019-02-06T12:10:09.733Z,10.00
2019-02-06T12:11:04.489Z,12.60
2019-02-06T12:12:04.498Z,11.70
2019-02-06T12:13:04.513Z,10.20
2019-02-06T12:14:04.525Z,10.50
2019-02-06T12:15:04.552Z,11.70
2019-02-06T12:16:04.546Z,10.20
2019-02-06T12:17:05.100Z,12.20
2019-02-06T12:18:04.570Z,10.50
2019-02-06T12:19:04.589Z,11.50
2019-02-06T12:20:04.597Z,12.70
2019-02-06T12:21:04.602Z,8.60
2019-02-06T12:22:04.627Z,12.10
2019-02-06T12:23:04.644Z,9.90
2019-02-06T12:24:04.653Z,12.70
2019-02-06T12:25:04.661Z,9.70
2019-02-06T12:26:04.667Z,9.30
2019-02-06T12:27:04.676Z,21.40
2019-02-06T12:28:05.266Z,13.50
2019-02-06T12:29:04.721Z,11.50
2019-02-06T12:30:04.706Z,11.30
2019-02-06T12:31:04.730Z,14.50
2019-02-06T12:32:04.798Z,9.60
2019-02-06T12:33:04.752Z,10.90
2019-02-06T12:35:04.855Z,9.50
2019-02-06T12:36:04.789Z,10.80
2019-02-06T12:37:04.786Z,11.40
2019-02-06T12:38:04.798Z,8.10
2019-02-06T12:39:04.873Z,12.80
2019-02-06T12:40:04.838Z,11.80
2019-02-06T12:41:05.271Z,9.90
2019-02-06T12:42:04.862Z,12.20
2019-02-06T12:43:04.878Z,10.70
2019-02-06T12:44:04.877Z,13.20
2019-02-06T12:45:04.882Z,9.60
2019-02-06T12:46:04.921Z,11.60
2019-02-06T12:47:04.914Z,11.60
2019-02-06T12:48:04.921Z,11.10
2019-02-06T12:49:04.931Z,11.00
2019-02-06T12:50:04.945Z,12.10
2019-02-06T12:51:04.961Z,10.50
2019-02-06T12:52:05.039Z,10.00
2019-02-06T12:53:04.975Z,10.70
2019-02-06T12:54:04.995Z,10.20
2019-02-06T12:55:05.003Z,11.80
2019-02-06T12:56:05.014Z,11.80
2019-02-06T12:57:05.023Z,10.90
2019-02-06T12:58:05.042Z,9.00
2019-02-06T12:59:05.048Z,11.50